SondeTracker

Meteorological Radiosondes Database

Operations

Sounding was ended - last measurement: 2022-12-06 13:22:54z

MAP
About Radiosonde

Number: U2520244

Launch Site:

Type: RS41-SG-Ozone

AUX: NO

Frequency: 403.100 MHz

Max Speed: 209 km/h at 32122 m

Average Speed: 105.45 km/h

Max Altitude: 33547 m

Average Ascent Speed: 4.69 m/s

Average Descent Speed: 22.86 m/s

Status: LOST

Status Changes
Launch Site Type AUX Frequency Status Finder Landing Point Description Changes made by
MHz LOST 0, 0 AUTO STATUS: Probably lost in the water [BOT]AUTO-STATUS - 2022-12-06 14:37:57z
APRS Statistics

Received Frames: 38

First Frame [UTC]: 2022-12-06 12:33:19z

Last Frame [UTC]: 2022-12-06 13:22:54z

Receivers: GB3EI-15

Flight Time: 00:49:35 h

Distance From First Measurement: 70.11 km

Nearest City: [0.00 km]

Nearest Hunter: [0.00 km]

Ground Altitude: -123 m

Distance from QTH: 0.00 km

APRS Data
Receiver Number Date/Time [UTC] φ λ Course [°] Speed [km/h] Altitude [m] Description
GB3EI-15U25202442022-12-06 13:22:5458.9901-0.1606711610428814Clb=-28.2m/s t=-73.1C h=2.8% p=-1.0hPa 403.100 MHz Type=RS41-SG-Ozone ser=U2520244 Radiosonde
GB3EI-15U25202442022-12-06 13:20:1559.0193-0.23673113419633065Clb=-42.6m/s t=-71.2C h=2.8% p=-1.0hPa 403.100 MHz Type=RS41-SG-Ozone ser=U2520244 Radiosonde
GB3EI-15U25202442022-12-06 13:19:2759.0283-0.25141914018733547Clb=11.0m/s t=-70.6C h=2.6% p=-1.0hPa 403.100 MHz Type=RS41-SG-Ozone ser=U2520244 Radiosonde
GB3EI-15U25202442022-12-06 13:18:4659.038-0.26926914414333350Clb=4.0m/s t=-72.4C h=2.9% p=-1.0hPa 403.100 MHz Type=RS41-SG-Ozone ser=U2520244 Radiosonde
GB3EI-15U25202442022-12-06 13:18:0759.0478-0.29098913917633135Clb=1.8m/s t=-72.0C h=2.8% p=-1.0hPa 403.100 MHz Type=RS41-SG-Ozone ser=U2520244 Radiosonde
GB3EI-15U25202442022-12-06 13:17:2259.0546-0.3088710915732960Clb=6.3m/s t=-73.2C h=-1.0% p=-1.0hPa 403.100 MHz Type=RS41-SG-Ozone ser=U2520244 Radiosonde
GB3EI-15U25202442022-12-06 13:16:4059.0615-0.3303711717632761Clb=7.1m/s t=-75.9C h=-1.0% p=-1.0hPa 403.100 MHz Type=RS41-SG-Ozone ser=U2520244 Radiosonde
GB3EI-15U25202442022-12-06 13:16:0359.0686-0.3539411520932547Clb=2.9m/s t=-273.0C h=-1.0% p=-1.0hPa 403.100 MHz Type=RS41-Ozone ser=U2520244 Radiosonde
GB3EI-15U25202442022-12-06 13:15:1959.0762-0.3765911418932334Clb=10.5m/s t=-273.0C h=-1.0% p=-1.0hPa 403.100 MHz Type=RS41-Ozone ser=U2520244 Radiosonde
GB3EI-15U25202442022-12-06 13:14:3759.0831-0.39941912620932122Clb=3.3m/s t=-273.0C h=-1.0% p=-1.0hPa 403.100 MHz Type=RS41-Ozone ser=U2520244 Radiosonde
GB3EI-15U25202442022-12-06 12:57:3459.2665-0.79389914711526848Clb=8.2m/s t=-73.4C h=3.2% p=-1.0hPa 403.100 MHz Type=RS41-SG-Ozone ser=U2520244 Radiosonde
GB3EI-15U25202442022-12-06 12:55:4359.2817-0.8108114613126440Clb=8.4m/s t=-70.9C h=3.0% p=-1.0hPa 403.100 MHz Type=RS41-SG-Ozone ser=U2520244 Radiosonde
GB3EI-15U25202442022-12-06 12:54:4459.2888-0.8201715213326242Clb=7.5m/s t=-70.2C h=2.6% p=-1.0hPa 403.100 MHz Type=RS41-SG-Ozone ser=U2520244 Radiosonde
GB3EI-15U25202442022-12-06 12:51:4959.3097-0.8517111437225560Clb=6.4m/s t=-69.7C h=2.7% p=-1.0hPa 403.100 MHz Type=RS41-SG-Ozone ser=U2520244 Radiosonde
GB3EI-15U25202442022-12-06 12:47:3759.3323-0.8818715010924845Clb=3.9m/s t=-69.2C h=2.7% p=-1.0hPa 403.100 MHz Type=RS41-SG-Ozone ser=U2520244 Radiosonde
GB3EI-15U25202442022-12-06 12:46:3859.3364-0.88876913010624695Clb=5.1m/s t=-69.2C h=2.7% p=-1.0hPa 403.100 MHz Type=RS41-SG-Ozone ser=U2520244 Radiosonde
GB3EI-15U25202442022-12-06 12:45:3959.3418-0.896441468724500Clb=7.5m/s t=-68.4C h=2.5% p=-1.0hPa 403.100 MHz Type=RS41-SG-Ozone ser=U2520244 Radiosonde
GB3EI-15U25202442022-12-06 12:44:3359.3473-0.9027111348024301Clb=8.3m/s t=-67.7C h=2.4% p=-1.0hPa 403.100 MHz Type=RS41-SG-Ozone ser=U2520244 Radiosonde
GB3EI-15U25202442022-12-06 12:43:5959.3528-0.909891329824094Clb=7.2m/s t=-67.6C h=2.4% p=-1.0hPa 403.100 MHz Type=RS41-SG-Ozone ser=U2520244 Radiosonde
GB3EI-15U25202442022-12-06 12:43:5059.3576-0.917741485723883Clb=8.6m/s t=-67.3C h=2.3% p=-1.0hPa 403.100 MHz Type=RS41-SG-Ozone ser=U2520244 Radiosonde
GB3EI-15U25202442022-12-06 12:43:4859.362-0.9242111676723687Clb=4.9m/s t=-68.0C h=2.4% p=-1.0hPa 403.100 MHz Type=RS41-SG-Ozone ser=U2520244 Radiosonde
GB3EI-15U25202442022-12-06 12:43:3459.3683-0.9313991408723478Clb=6.1m/s t=-67.2C h=2.5% p=-1.0hPa 403.100 MHz Type=RS41-SG-Ozone ser=U2520244 Radiosonde
GB3EI-15U25202442022-12-06 12:43:1959.3734-0.937871528723303Clb=3.9m/s t=-66.1C h=2.3% p=-1.0hPa 403.100 MHz Type=RS41-SG-Ozone ser=U2520244 Radiosonde
GB3EI-15U25202442022-12-06 12:42:4059.379-0.946591138523112Clb=10.1m/s t=-65.2C h=2.3% p=-1.0hPa 403.100 MHz Type=RS41-SG-Ozone ser=U2520244 Radiosonde
GB3EI-15U25202442022-12-06 12:42:0059.3829-0.958091109122899Clb=5.6m/s t=-65.4C h=2.3% p=-1.0hPa 403.100 MHz Type=RS41-SG-Ozone ser=U2520244 Radiosonde
GB3EI-15U25202442022-12-06 12:41:5659.3857-0.969311246322718Clb=5.1m/s t=-64.9C h=2.1% p=-1.0hPa 403.100 MHz Type=RS41-SG-Ozone ser=U2520244 Radiosonde
GB3EI-15U25202442022-12-06 12:41:5259.3894-0.9788211178122536Clb=6.4m/s t=-64.9C h=2.5% p=-1.0hPa 403.100 MHz Type=RS41-SG-Ozone ser=U2520244 Radiosonde
GB3EI-15U25202442022-12-06 12:41:4959.3929-0.988911377822351Clb=3.7m/s t=-65.2C h=2.4% p=-1.0hPa 403.100 MHz Type=RS41-SG-Ozone ser=U2520244 Radiosonde
GB3EI-15U25202442022-12-06 12:41:4859.3958-0.9971011353922172Clb=5.3m/s t=-65.4C h=2.3% p=-1.0hPa 403.100 MHz Type=RS41-SG-Ozone ser=U2520244 Radiosonde
GB3EI-15U25202442022-12-06 12:41:4459.3983-1.004021208021992Clb=4.0m/s t=-66.7C h=2.5% p=-1.0hPa 403.100 MHz Type=RS41-SG-Ozone ser=U2520244 Radiosonde
GB3EI-15U25202442022-12-06 12:41:1659.4025-1.010761398021811Clb=5.1m/s t=-66.4C h=2.5% p=-1.0hPa 403.100 MHz Type=RS41-SG-Ozone ser=U2520244 Radiosonde
GB3EI-15U25202442022-12-06 12:40:3259.4069-1.017771408021634Clb=6.5m/s t=-66.6C h=2.7% p=-1.0hPa 403.100 MHz Type=RS41-SG-Ozone ser=U2520244 Radiosonde
GB3EI-15U25202442022-12-06 12:39:2959.4107-1.025441387221461Clb=6.2m/s t=-66.8C h=2.6% p=-1.0hPa 403.100 MHz Type=RS41-SG-Ozone ser=U2520244 Radiosonde
GB3EI-15U25202442022-12-06 12:38:2059.4143-1.031681335621293Clb=3.8m/s t=-66.9C h=2.8% p=-1.0hPa 403.100 MHz Type=RS41-SG-Ozone ser=U2520244 Radiosonde
GB3EI-15U25202442022-12-06 12:37:0759.4174-1.036831535421115Clb=6.8m/s t=-66.1C h=2.6% p=-1.0hPa 403.100 MHz Type=RS41-SG-Ozone ser=U2520244 Radiosonde
GB3EI-15U25202442022-12-06 12:35:5859.421-1.038581684820941Clb=7.0m/s t=-66.2C h=2.6% p=-1.0hPa 403.100 MHz Type=RS41-SG-Ozone ser=U2520244 Radiosonde
GB3EI-15U25202442022-12-06 12:34:3659.4254-1.040481755620758Clb=6.5m/s t=-65.4C h=2.6% p=-1.0hPa 403.100 MHz Type=RS41-SG-Ozone ser=U2520244 Radiosonde
GB3EI-15U25202442022-12-06 12:33:1959.4298-1.043491546920569Clb=6.9m/s t=-64.8C h=2.4% p=-1.0hPa 403.100 MHz Type=RS41-SG-Ozone ser=U2520244 Radiosonde